Palo Cedro, CA (96073)

12:58 PM PST on December 12, 2019 (GMT -0800)
Palo Cedro | | Change Station

Elev 469 ft 40.56 °N, 122.23 °W | Updated 17 seconds ago

Overcast
Overcast
52.2 °F
Feels Like 52.2 °F
N
0.4
Wind Variable Wind from SW
Gusts 1.1 mph

Today
High -- | Low -- °F
--% Chance of Precip.
Yesterday
High -- | Low -- °F
Precip. -- in
Pressure 30.25 in
Visibility 6.0 miles
Clouds Overcast 900 ft
Dew Point 52 °F
Humidity 99%
Rainfall 0.11 in
Snow Depth Not available.
7:23 AM 4:42 PM
Full, 100% visible
METAR KRDD 122053Z 21006KT 6SM BR OVC009 12/11 A3025 RMK AO2 CIG 006V013 SLP242 T01220106 58008
Pressure 30.25 in
Visibility 6.0 miles
Clouds Overcast 900 ft
Dew Point 52 °F
Humidity 99%
Rainfall 0.11 in
Snow Depth Not available.
7:23 AM 4:42 PM
Full, 100% visible
METAR KRDD 122053Z 21006KT 6SM BR OVC009 12/11 A3025 RMK AO2 CIG 006V013 SLP242 T01220106 58008

Get Severe Weather Alerts

Thanks for signing up!

Be on the lookout for a verification email in your inbox.

You'll start receiving the daily forecast at 6 AM.

×

10-Day Weather Forecast

Almanac

Astronomy

Dec. 12, 2019 Rise Set
Actual Time
Civil Twilight
Nautical Twilight
Astronomical Twilight
Moon
Length of Visible Light
Length of Day
Tomorrow will be .
, % of the Moon is Illuminated

Today's Extremes

State Highs State Lows

Community

WunderPhotos

Category 6

Welcome to Category 6. This is the collective home for Weather Underground's featured writeups by Dr. Jeff Masters (right), Bob Henson (left), Chris Burt, and other regular contributors.

Nearby

Air Quality

  Air Quality AQ Index Pollutant
Not available.

Snow Depth

Station Depth Elevation

Earthquake Activity

City Distance Mag. Time & Date
Minimum magnitude displayed is 2.5.

Coastal Water Temperatures

Place Temperature

Stations

Nearby Weather Stations

Station Location Temp. Windchill Dew Point Humidity Wind Precip. Elev Updated Type
                   

Watches & Warnings

There are currently no watches in effect.